Henry, Illinois
Current Conditions -  °F | °C
As of 6:55 AM on Friday 31 Oct 2014 (Local Time) from KC75 Reporting Station
Scattered Clouds Scattered Clouds  
Wind Chill: 23°   Ceiling: Unl
Heat Index: 35°   Visibility: 10mi
Dew Point: 19°   Wind: 21mph
Humidity: 52%   Direction: 340°NNW
Pressure: 30.17"   Gusts: 28mph
Location:  41.11°N, 89.36°W
Report Text: KC75 311155Z AUTO 34018G24KT 10SM SCT060 02/M07 A3017 RMK AO2 T00151073 10077 20015
Loading
Personal Weather Stations






























Interactive Weather Map
Tropical Storm Tracking
New forecast layout! Learn more

10-Day Weather Forecast

Advertisements
Track Severe Weather on mobile